createdAt,value
2024-01-15T00:00:38.640Z,4.98
2024-01-15T00:02:38.609Z,4.97
2024-01-15T00:05:38.615Z,4.97
2024-01-15T00:08:38.602Z,4.95
2024-01-15T00:10:38.599Z,4.93
2024-01-15T00:12:38.623Z,4.88
2024-01-15T00:14:38.577Z,4.85
2024-01-15T00:16:38.558Z,4.88
2024-01-15T00:19:38.808Z,4.88
2024-01-15T00:21:38.607Z,4.92
2024-01-15T00:25:38.652Z,4.93
2024-01-15T00:27:38.636Z,4.91
2024-01-15T00:29:38.613Z,4.83
2024-01-15T00:31:38.745Z,4.72
2024-01-15T00:33:38.885Z,4.77
2024-01-15T00:35:38.690Z,4.89
2024-01-15T00:37:38.901Z,4.95
2024-01-15T00:39:38.699Z,5.03
2024-01-15T00:42:38.682Z,5.06
2024-01-15T00:44:38.645Z,5.10
2024-01-15T00:46:38.689Z,5.11
2024-01-15T00:48:38.860Z,5.13
2024-01-15T00:50:38.670Z,5.20
2024-01-15T00:53:38.733Z,5.22
2024-01-15T00:57:38.718Z,5.24
2024-01-15T00:59:38.741Z,5.19
2024-01-15T01:01:38.759Z,5.22
2024-01-15T01:03:42.191Z,5.24
2024-01-15T01:06:38.789Z,5.25
2024-01-15T01:08:38.714Z,5.26
2024-01-15T01:10:38.724Z,5.10
2024-01-15T01:13:38.717Z,5.08
2024-01-15T01:15:38.850Z,5.06
2024-01-15T01:17:38.941Z,5.03
2024-01-15T01:19:39.139Z,5.02
2024-01-15T01:21:38.856Z,4.85
2024-01-15T01:23:38.728Z,4.72
2024-01-15T01:27:38.847Z,4.67
2024-01-15T01:29:38.752Z,4.66
2024-01-15T01:31:38.853Z,4.58
2024-01-15T01:33:38.828Z,4.53
2024-01-15T01:35:38.814Z,4.55
2024-01-15T01:37:38.784Z,4.59
2024-01-15T01:40:42.507Z,4.62
2024-01-15T01:42:38.859Z,4.63
2024-01-15T01:45:38.922Z,4.66
2024-01-15T01:47:38.853Z,4.56
2024-01-15T01:49:39.089Z,4.52
2024-01-15T01:52:38.860Z,4.51
2024-01-15T01:55:38.848Z,4.41
2024-01-15T01:57:38.843Z,4.37
2024-01-15T01:59:38.825Z,4.35
2024-01-15T02:01:38.917Z,4.27
2024-01-15T02:03:38.978Z,4.25
2024-01-15T02:05:38.898Z,4.17
2024-01-15T02:07:38.884Z,4.18
2024-01-15T02:09:38.924Z,4.01
2024-01-15T02:11:38.887Z,3.95
2024-01-15T02:13:38.915Z,3.99
2024-01-15T02:15:38.959Z,4.05
2024-01-15T02:17:42.900Z,4.05
2024-01-15T02:19:38.973Z,4.03
2024-01-15T02:21:38.943Z,3.99
2024-01-15T02:23:38.909Z,4.03
2024-01-15T02:26:38.952Z,4.07
2024-01-15T02:28:38.928Z,3.99
2024-01-15T02:30:39.041Z,3.90
2024-01-15T02:32:38.976Z,3.73
2024-01-15T02:34:39.021Z,3.73
2024-01-15T02:37:38.921Z,3.68
2024-01-15T02:39:39.004Z,3.56
2024-01-15T02:41:38.940Z,3.54
2024-01-15T02:43:38.930Z,3.57
2024-01-15T02:45:39.040Z,3.65
2024-01-15T02:47:38.999Z,3.70
2024-01-15T02:50:38.965Z,3.72
2024-01-15T02:53:38.942Z,3.75
2024-01-15T02:55:38.999Z,3.76
2024-01-15T02:57:39.042Z,3.72
2024-01-15T03:00:39.125Z,3.72
2024-01-15T03:02:39.028Z,3.78
2024-01-15T03:04:39.023Z,3.83
2024-01-15T03:06:39.033Z,3.77
2024-01-15T03:08:39.027Z,3.71
2024-01-15T03:10:39.030Z,3.61
2024-01-15T03:12:39.058Z,3.58
2024-01-15T03:14:38.986Z,3.59
2024-01-15T03:16:39.022Z,3.52
2024-01-15T03:18:39.103Z,3.40
2024-01-15T03:20:39.067Z,3.27
2024-01-15T03:22:39.028Z,3.17
2024-01-15T03:24:39.050Z,3.09
2024-01-15T03:26:39.082Z,3.17
2024-01-15T03:28:39.103Z,3.31
2024-01-15T03:30:39.191Z,3.39
2024-01-15T03:32:39.131Z,3.38
2024-01-15T03:35:39.060Z,3.34
2024-01-15T03:37:39.059Z,3.40
2024-01-15T03:39:39.248Z,3.34
2024-01-15T03:41:39.622Z,3.16
2024-01-15T03:43:39.066Z,3.11
2024-01-15T03:45:39.168Z,3.21
2024-01-15T03:47:39.141Z,3.28
2024-01-15T03:49:39.335Z,3.38
2024-01-15T03:51:39.150Z,3.51
2024-01-15T03:53:39.112Z,3.60
2024-01-15T03:55:39.102Z,3.64
2024-01-15T03:57:39.211Z,3.63
2024-01-15T03:59:39.147Z,3.59
2024-01-15T04:02:39.180Z,3.54
2024-01-15T04:04:39.233Z,3.59
2024-01-15T04:06:39.221Z,3.63
2024-01-15T04:08:44.034Z,3.71
2024-01-15T04:10:39.134Z,3.65
2024-01-15T04:12:39.237Z,3.65
2024-01-15T04:14:39.196Z,3.63
2024-01-15T04:16:39.174Z,3.66
2024-01-15T04:18:39.261Z,3.71
2024-01-15T04:20:39.197Z,3.72
2024-01-15T04:22:39.233Z,3.68
2024-01-15T04:24:39.234Z,3.67
2024-01-15T04:26:39.199Z,3.67
2024-01-15T04:28:39.226Z,3.75
2024-01-15T04:30:39.309Z,3.81
2024-01-15T04:32:39.191Z,3.85
2024-01-15T04:36:39.250Z,3.88
2024-01-15T04:38:39.235Z,3.91
2024-01-15T04:40:39.260Z,3.94
2024-01-15T04:44:39.205Z,3.92
2024-01-15T04:46:39.262Z,3.92
2024-01-15T04:48:39.326Z,3.94
2024-01-15T04:50:39.262Z,3.88
2024-01-15T04:52:39.270Z,3.83
2024-01-15T04:54:39.280Z,3.82
2024-01-15T04:56:39.277Z,3.84
2024-01-15T04:59:39.255Z,3.77
2024-01-15T05:01:39.376Z,3.81
2024-01-15T05:03:39.401Z,3.82
2024-01-15T05:05:39.302Z,3.84
2024-01-15T05:07:39.287Z,3.85
2024-01-15T05:13:39.297Z,3.89
2024-01-15T05:15:39.381Z,3.90
2024-01-15T05:17:39.433Z,3.94
2024-01-15T05:19:40.029Z,3.96
2024-01-15T05:21:39.348Z,3.74
2024-01-15T05:24:39.410Z,3.66
2024-01-15T05:27:39.401Z,3.64
2024-01-15T05:29:39.356Z,3.64
2024-01-15T05:31:39.549Z,3.63
2024-01-15T05:33:39.427Z,3.68
2024-01-15T05:35:39.383Z,3.77
2024-01-15T05:37:39.386Z,3.80
2024-01-15T05:39:39.364Z,3.83
2024-01-15T05:41:39.359Z,3.80
2024-01-15T05:43:39.418Z,3.68
2024-01-15T05:45:39.425Z,3.73
2024-01-15T05:47:39.482Z,3.77
2024-01-15T05:49:39.540Z,3.75
2024-01-15T05:51:39.466Z,3.77
2024-01-15T05:53:39.433Z,3.82
2024-01-15T05:55:39.431Z,3.78
2024-01-15T05:57:39.395Z,3.69
2024-01-15T05:59:39.428Z,3.64
2024-01-15T06:01:39.499Z,3.72
2024-01-15T06:03:39.525Z,3.76
2024-01-15T06:05:39.411Z,3.84
2024-01-15T06:07:39.413Z,3.60
2024-01-15T06:09:39.521Z,3.60
2024-01-15T06:11:39.473Z,3.56
2024-01-15T06:13:39.432Z,3.66
2024-01-15T06:15:39.505Z,3.67
2024-01-15T06:17:39.538Z,3.39
2024-01-15T06:19:39.755Z,3.13
2024-01-15T06:21:39.519Z,3.23
2024-01-15T06:23:39.450Z,3.39
2024-01-15T06:25:39.488Z,3.55
2024-01-15T06:27:39.647Z,3.59
2024-01-15T06:29:39.541Z,3.58
2024-01-15T06:31:39.619Z,3.56
2024-01-15T06:33:41.066Z,3.63
2024-01-15T06:35:39.498Z,3.74
2024-01-15T06:37:39.551Z,3.81
2024-01-15T06:39:39.583Z,3.76
2024-01-15T06:41:39.502Z,3.68
2024-01-15T06:43:39.503Z,3.63
2024-01-15T06:46:39.521Z,3.63
2024-01-15T06:48:39.689Z,3.71
2024-01-15T06:50:39.552Z,3.71
2024-01-15T06:52:39.552Z,3.79
2024-01-15T06:54:39.628Z,3.77
2024-01-15T06:56:39.543Z,3.68
2024-01-15T06:58:39.639Z,3.74
2024-01-15T07:00:39.640Z,3.78
2024-01-15T07:02:39.578Z,3.85
2024-01-15T07:04:42.768Z,3.91
2024-01-15T07:08:39.609Z,3.94
2024-01-15T07:10:41.222Z,3.72
2024-01-15T07:13:39.633Z,3.71
2024-01-15T07:15:39.614Z,3.85
2024-01-15T07:17:39.599Z,3.73
2024-01-15T07:20:39.601Z,3.81
2024-01-15T07:22:39.608Z,3.85
2024-01-15T07:25:39.631Z,3.91
2024-01-15T07:27:39.726Z,4.01
2024-01-15T07:29:39.644Z,4.06
2024-01-15T07:31:39.961Z,4.04
2024-01-15T07:33:39.745Z,4.03
2024-01-15T07:35:39.635Z,4.02
2024-01-15T07:39:39.693Z,3.97
2024-01-15T07:41:39.681Z,3.81
2024-01-15T07:43:39.845Z,3.62
2024-01-15T07:45:41.107Z,3.57
2024-01-15T07:47:41.638Z,3.75
2024-01-15T07:49:39.917Z,3.88
2024-01-15T07:51:39.697Z,4.00
2024-01-15T07:53:39.693Z,4.03
2024-01-15T07:55:39.719Z,4.02
2024-01-15T07:57:39.779Z,4.06
2024-01-15T07:59:39.694Z,4.11
2024-01-15T08:01:39.769Z,4.08
2024-01-15T08:03:39.921Z,4.15
2024-01-15T08:05:39.843Z,4.14
2024-01-15T08:07:39.742Z,3.96
2024-01-15T08:09:39.756Z,3.81
2024-01-15T08:11:39.739Z,3.78
2024-01-15T08:13:39.743Z,3.83
2024-01-15T08:15:39.853Z,3.87
2024-01-15T08:17:39.842Z,3.92
2024-01-15T08:19:39.859Z,3.99
2024-01-15T08:21:39.884Z,3.94
2024-01-15T08:23:39.775Z,3.85
2024-01-15T08:25:39.773Z,3.93
2024-01-15T08:27:39.785Z,3.97
2024-01-15T08:29:39.757Z,3.87
2024-01-15T08:31:40.004Z,3.93
2024-01-15T08:33:39.924Z,4.07
2024-01-15T08:35:39.798Z,3.91
2024-01-15T08:37:39.776Z,3.97
2024-01-15T08:39:40.011Z,4.06
2024-01-15T08:41:39.825Z,4.11
2024-01-15T08:43:39.811Z,4.26
2024-01-15T08:45:39.859Z,4.38
2024-01-15T08:47:39.829Z,4.45
2024-01-15T08:49:39.959Z,4.43
2024-01-15T08:51:39.890Z,4.38
2024-01-15T08:53:39.822Z,4.28
2024-01-15T08:55:39.815Z,4.05
2024-01-15T08:57:39.896Z,3.89
2024-01-15T08:59:39.929Z,3.63
2024-01-15T09:01:42.795Z,3.62
2024-01-15T09:03:39.994Z,3.80
2024-01-15T09:05:40.023Z,3.87
2024-01-15T09:07:39.890Z,3.84
2024-01-15T09:09:39.879Z,3.93
2024-01-15T09:11:39.857Z,4.04
2024-01-15T09:13:39.885Z,4.06
2024-01-15T09:15:39.897Z,4.12
2024-01-15T09:17:39.940Z,4.12
2024-01-15T09:19:39.924Z,4.15
2024-01-15T09:21:39.973Z,4.20
2024-01-15T09:23:39.947Z,4.20
2024-01-15T09:25:39.942Z,4.31
2024-01-15T09:27:39.957Z,4.37
2024-01-15T09:29:39.919Z,4.52
2024-01-15T09:31:40.252Z,4.56
2024-01-15T09:33:39.974Z,4.64
2024-01-15T09:35:39.958Z,4.69
2024-01-15T09:37:45.498Z,4.75
2024-01-15T09:39:39.971Z,4.82
2024-01-15T09:41:39.997Z,4.88
2024-01-15T09:43:39.955Z,4.79
2024-01-15T09:45:39.988Z,4.76
2024-01-15T09:47:42.461Z,4.73
2024-01-15T09:49:40.261Z,4.79
2024-01-15T09:51:40.024Z,4.61
2024-01-15T09:53:39.962Z,4.43
2024-01-15T09:55:39.987Z,4.33
2024-01-15T09:57:39.996Z,4.32
2024-01-15T09:59:40.040Z,4.28
2024-01-15T10:01:40.093Z,4.37
2024-01-15T10:03:40.006Z,4.46
2024-01-15T10:05:40.084Z,4.49
2024-01-15T10:07:40.043Z,4.47
2024-01-15T10:10:40.032Z,4.34
2024-01-15T10:12:40.013Z,4.33
2024-01-15T10:14:40.024Z,4.29
2024-01-15T10:16:40.053Z,4.47
2024-01-15T10:18:40.132Z,4.47
2024-01-15T10:20:40.034Z,4.48
2024-01-15T10:22:40.068Z,4.57
2024-01-15T10:24:40.116Z,4.71
2024-01-15T10:26:40.045Z,4.85
2024-01-15T10:28:40.045Z,4.91
2024-01-15T10:30:40.158Z,4.78
2024-01-15T10:32:40.202Z,4.55
2024-01-15T10:34:40.145Z,4.23
2024-01-15T10:36:40.098Z,4.19
2024-01-15T10:38:40.075Z,4.29
2024-01-15T10:40:40.098Z,4.41
2024-01-15T10:42:40.187Z,4.10
2024-01-15T10:44:40.092Z,4.04
2024-01-15T10:46:40.098Z,4.12
2024-01-15T10:48:40.134Z,4.25
2024-01-15T10:50:40.118Z,4.22
2024-01-15T10:52:43.959Z,3.98
2024-01-15T10:54:40.133Z,3.78
2024-01-15T10:56:40.103Z,3.73
2024-01-15T10:58:40.139Z,3.44
2024-01-15T11:00:40.314Z,3.10
2024-01-15T11:02:40.126Z,2.94
2024-01-15T11:04:40.219Z,2.89
2024-01-15T11:06:40.236Z,3.05
2024-01-15T11:08:40.168Z,3.23
2024-01-15T11:10:40.200Z,3.23
2024-01-15T11:12:40.161Z,3.43
2024-01-15T11:14:40.145Z,3.39
2024-01-15T11:16:40.214Z,3.42
2024-01-15T11:18:42.047Z,3.50
2024-01-15T11:20:40.173Z,3.48
2024-01-15T11:22:40.186Z,3.26
2024-01-15T11:24:40.347Z,3.18
2024-01-15T11:26:40.216Z,3.09
2024-01-15T11:28:40.218Z,3.04
2024-01-15T11:30:40.264Z,3.03
2024-01-15T11:32:40.246Z,3.13
2024-01-15T11:34:40.402Z,3.03
2024-01-15T11:36:40.264Z,2.91
2024-01-15T11:38:40.254Z,2.86
2024-01-15T11:40:40.231Z,3.02
2024-01-15T11:42:40.340Z,3.15
2024-01-15T11:44:40.288Z,3.11
2024-01-15T11:46:40.229Z,3.42
2024-01-15T11:48:40.287Z,3.54
2024-01-15T11:50:40.318Z,3.61
2024-01-15T11:52:40.270Z,3.74
2024-01-15T11:54:40.296Z,3.65
2024-01-15T11:56:40.271Z,3.64
2024-01-15T11:58:40.254Z,3.72
2024-01-15T12:00:40.403Z,3.55
2024-01-15T12:02:40.309Z,3.57
2024-01-15T12:04:40.313Z,3.80
2024-01-15T12:06:45.142Z,3.82
2024-01-15T12:08:40.317Z,3.84
2024-01-15T12:10:40.323Z,3.76
2024-01-15T12:12:40.371Z,3.77
2024-01-15T12:14:40.301Z,3.97
2024-01-15T12:16:40.289Z,3.97
2024-01-15T12:18:40.521Z,3.74
2024-01-15T12:20:40.347Z,3.84
2024-01-15T12:22:53.192Z,3.81
2024-01-15T12:24:40.321Z,3.94
2024-01-15T12:26:40.360Z,3.87
2024-01-15T12:28:40.360Z,4.02
2024-01-15T12:30:40.530Z,4.29
2024-01-15T12:32:40.399Z,4.07
2024-01-15T12:34:40.400Z,4.07
2024-01-15T12:36:40.437Z,4.21
2024-01-15T12:39:40.411Z,4.38
2024-01-15T12:41:40.394Z,4.73
2024-01-15T12:43:45.436Z,5.03
2024-01-15T12:45:40.396Z,4.92
2024-01-15T12:47:40.391Z,4.91
2024-01-15T12:49:40.590Z,5.02
2024-01-15T12:51:40.481Z,5.16
2024-01-15T12:53:40.405Z,5.31
2024-01-15T12:55:40.417Z,5.46
2024-01-15T12:57:40.493Z,5.51
2024-01-15T12:59:40.449Z,5.40
2024-01-15T13:01:40.563Z,5.46
2024-01-15T13:03:40.566Z,5.54
2024-01-15T13:05:40.560Z,5.66
2024-01-15T13:07:40.459Z,5.65
2024-01-15T13:09:40.464Z,5.74
2024-01-15T13:11:40.449Z,5.81
2024-01-15T13:13:40.469Z,5.69
2024-01-15T13:15:40.520Z,5.79
2024-01-15T13:17:40.916Z,5.84
2024-01-15T13:19:40.669Z,5.83
2024-01-15T13:21:40.488Z,5.91
2024-01-15T13:23:40.453Z,5.87
2024-01-15T13:27:41.786Z,5.84
2024-01-15T13:29:40.503Z,5.76
2024-01-15T13:31:40.585Z,5.78
2024-01-15T13:33:42.611Z,5.83
2024-01-15T13:35:40.578Z,5.71
2024-01-15T13:37:40.496Z,5.68
2024-01-15T13:39:40.564Z,5.75
2024-01-15T13:41:40.556Z,5.87
2024-01-15T13:43:40.556Z,6.00
2024-01-15T13:45:40.521Z,6.11
2024-01-15T13:47:40.560Z,6.15
2024-01-15T13:49:40.560Z,6.17
2024-01-15T13:51:40.594Z,6.14
2024-01-15T13:53:40.566Z,6.04
2024-01-15T13:55:40.544Z,5.92
2024-01-15T13:57:40.641Z,5.78
2024-01-15T13:59:40.623Z,5.84
2024-01-15T14:01:40.601Z,5.76
2024-01-15T14:04:40.621Z,5.76
2024-01-15T14:06:40.630Z,5.82
2024-01-15T14:08:40.581Z,5.80
2024-01-15T14:10:40.580Z,5.81
2024-01-15T14:12:40.678Z,5.81
2024-01-15T14:14:40.633Z,5.82
2024-01-15T14:16:40.621Z,5.74
2024-01-15T14:18:40.805Z,5.69
2024-01-15T14:21:40.680Z,5.58
2024-01-15T14:23:40.637Z,5.53
2024-01-15T14:25:40.666Z,5.63
2024-01-15T14:27:40.774Z,5.74
2024-01-15T14:29:40.760Z,5.81
2024-01-15T14:31:41.978Z,5.86
2024-01-15T14:33:40.972Z,5.92
2024-01-15T14:35:40.760Z,5.96
2024-01-15T14:37:40.705Z,5.97
2024-01-15T14:39:40.817Z,5.95
2024-01-15T14:41:40.724Z,5.89
2024-01-15T14:43:40.724Z,5.88
2024-01-15T14:45:40.847Z,5.88
2024-01-15T14:47:40.860Z,5.93
2024-01-15T14:49:40.753Z,5.94
2024-01-15T14:51:40.783Z,5.88
2024-01-15T14:54:40.731Z,5.88
2024-01-15T14:56:40.748Z,5.88
2024-01-15T14:58:40.756Z,5.88
2024-01-15T15:00:40.873Z,5.90
2024-01-15T15:03:40.933Z,5.79
2024-01-15T15:05:40.816Z,5.75
2024-01-15T15:07:40.779Z,5.74
2024-01-15T15:09:40.838Z,5.77
2024-01-15T15:12:40.795Z,5.80
2024-01-15T15:14:48.421Z,5.78
2024-01-15T15:16:40.848Z,5.63
2024-01-15T15:19:40.961Z,5.58
2024-01-15T15:21:40.839Z,5.59
2024-01-15T15:23:40.765Z,5.60
2024-01-15T15:26:40.774Z,5.53
2024-01-15T15:28:40.780Z,5.35
2024-01-15T15:30:40.792Z,5.32
2024-01-15T15:32:40.838Z,5.21
2024-01-15T15:34:40.888Z,5.24
2024-01-15T15:36:40.798Z,5.30
2024-01-15T15:38:40.807Z,5.19
2024-01-15T15:40:40.794Z,5.02
2024-01-15T15:42:40.862Z,4.91
2024-01-15T15:44:40.841Z,4.64
2024-01-15T15:46:40.804Z,4.74
2024-01-15T15:48:40.981Z,4.70
2024-01-15T15:50:40.967Z,4.48
2024-01-15T15:52:40.812Z,4.41
2024-01-15T15:54:40.877Z,4.41
2024-01-15T15:56:41.210Z,4.43
2024-01-15T15:58:40.872Z,4.49
2024-01-15T16:00:40.975Z,4.43
2024-01-15T16:03:40.952Z,4.36
2024-01-15T16:05:49.087Z,4.41
2024-01-15T16:07:40.881Z,4.50
2024-01-15T16:09:41.232Z,4.32
2024-01-15T16:11:40.916Z,4.34
2024-01-15T16:13:40.865Z,4.23
2024-01-15T16:15:40.936Z,4.08
2024-01-15T16:23:21.795Z,4.05
2024-01-15T16:23:32.162Z,4.07
2024-01-15T16:23:43.436Z,4.06
2024-01-15T16:24:50.197Z,4.14
2024-01-15T16:26:41.368Z,4.22
2024-01-15T16:28:40.976Z,4.22
2024-01-15T16:30:45.389Z,4.10
2024-01-15T16:32:40.988Z,4.18
2024-01-15T16:34:40.992Z,4.15
2024-01-15T16:36:41.158Z,4.09
2024-01-15T16:38:40.972Z,3.95
2024-01-15T16:40:40.935Z,4.03
2024-01-15T16:42:40.992Z,4.16
2024-01-15T16:44:41.003Z,4.21
2024-01-15T16:46:40.937Z,4.30
2024-01-15T16:48:41.044Z,4.14
2024-01-15T16:50:41.025Z,4.06
2024-01-15T16:52:41.002Z,3.96
2024-01-15T16:54:40.970Z,3.97
2024-01-15T16:56:41.016Z,4.01
2024-01-15T16:58:41.007Z,4.01
2024-01-15T17:00:41.100Z,4.00
2024-01-15T17:02:41.104Z,3.88
2024-01-15T17:04:41.037Z,3.76
2024-01-15T17:06:41.020Z,3.77
2024-01-15T17:08:41.182Z,3.81
2024-01-15T17:10:41.789Z,3.84
2024-01-15T17:12:41.034Z,3.82
2024-01-15T17:14:41.031Z,3.87
2024-01-15T17:16:41.029Z,3.84
2024-01-15T17:18:41.173Z,3.93
2024-01-15T17:20:41.045Z,3.91
2024-01-15T17:22:41.027Z,3.76
2024-01-15T17:24:41.077Z,3.46
2024-01-15T17:26:41.139Z,3.51
2024-01-15T17:28:41.093Z,3.56
2024-01-15T17:30:41.042Z,3.64
2024-01-15T17:32:41.257Z,3.68
2024-01-15T17:34:41.116Z,3.72
2024-01-15T17:36:43.604Z,3.63
2024-01-15T17:38:41.090Z,3.45
2024-01-15T17:40:41.091Z,3.49
2024-01-15T17:42:41.117Z,3.60
2024-01-15T17:44:41.119Z,3.68
2024-01-15T17:46:41.123Z,3.75
2024-01-15T17:48:41.159Z,3.74
2024-01-15T17:51:41.110Z,3.73
2024-01-15T17:53:41.234Z,3.75
2024-01-15T17:55:41.173Z,3.70
2024-01-15T17:57:41.176Z,3.49
2024-01-15T17:59:41.131Z,3.37
2024-01-15T18:02:41.229Z,3.45
2024-01-15T18:04:41.177Z,3.47
2024-01-15T18:06:41.161Z,3.44
2024-01-15T18:09:41.164Z,3.37
2024-01-15T18:11:41.204Z,3.42
2024-01-15T18:13:44.072Z,3.42
2024-01-15T18:15:41.206Z,3.47
2024-01-15T18:17:41.208Z,3.55
2024-01-15T18:19:41.169Z,3.60
2024-01-15T18:21:41.227Z,3.69
2024-01-15T18:23:41.255Z,3.76
2024-01-15T18:25:41.257Z,3.66
2024-01-15T18:27:41.194Z,3.66
2024-01-15T18:30:41.189Z,3.55
2024-01-15T18:32:41.309Z,3.58
2024-01-15T18:34:41.291Z,3.64
2024-01-15T18:36:41.291Z,3.59
2024-01-15T18:38:41.285Z,3.58
2024-01-15T18:40:41.234Z,3.52
2024-01-15T18:42:41.232Z,3.48
2024-01-15T18:44:41.245Z,3.52
2024-01-15T18:46:41.299Z,3.58
2024-01-15T18:48:41.358Z,3.65
2024-01-15T18:50:44.567Z,3.64
2024-01-15T18:52:41.246Z,3.62
2024-01-15T18:54:41.320Z,3.60
2024-01-15T18:56:41.372Z,3.54
2024-01-15T18:58:41.277Z,3.61
2024-01-15T19:01:41.348Z,3.60
2024-01-15T19:05:41.378Z,3.55
2024-01-15T19:07:41.327Z,3.57
2024-01-15T19:09:41.394Z,3.53
2024-01-15T19:11:41.419Z,3.61
2024-01-15T19:14:41.384Z,3.59
2024-01-15T19:17:41.435Z,3.58
2024-01-15T19:19:41.365Z,3.47
2024-01-15T19:21:41.325Z,3.37
2024-01-15T19:23:41.383Z,3.35
2024-01-15T19:25:41.338Z,3.44
2024-01-15T19:27:44.919Z,3.54
2024-01-15T19:29:41.443Z,3.55
2024-01-15T19:31:41.385Z,3.44
2024-01-15T19:33:43.776Z,3.41
2024-01-15T19:35:41.456Z,3.44
2024-01-15T19:38:41.409Z,3.54
2024-01-15T19:40:41.372Z,3.60
2024-01-15T19:42:41.363Z,3.68
2024-01-15T19:44:41.514Z,3.78
2024-01-15T19:46:41.422Z,3.82
2024-01-15T19:49:41.437Z,3.82
2024-01-15T19:51:41.415Z,3.79
2024-01-15T19:54:41.460Z,3.76
2024-01-15T19:56:41.487Z,3.75
2024-01-15T19:58:41.403Z,3.60
2024-01-15T20:00:41.459Z,3.56
2024-01-15T20:02:41.691Z,3.59
2024-01-15T20:04:45.284Z,3.60
2024-01-15T20:06:41.419Z,3.52
2024-01-15T20:09:41.433Z,3.48
2024-01-15T20:11:41.569Z,3.26
2024-01-15T20:13:41.469Z,3.30
2024-01-15T20:15:41.463Z,3.42
2024-01-15T20:17:41.586Z,3.42
2024-01-15T20:19:41.593Z,3.21
2024-01-15T20:21:41.482Z,3.26
2024-01-15T20:23:50.864Z,3.36
2024-01-15T20:27:41.538Z,3.40
2024-01-15T20:29:41.568Z,3.40
2024-01-15T20:31:41.560Z,3.33
2024-01-15T20:33:41.541Z,3.25
2024-01-15T20:35:41.619Z,3.29
2024-01-15T20:37:41.497Z,3.18
2024-01-15T20:39:41.512Z,3.15
2024-01-15T20:41:45.897Z,3.16
2024-01-15T20:43:41.549Z,3.18
2024-01-15T20:45:41.571Z,3.22
2024-01-15T20:47:41.591Z,3.28
2024-01-15T20:49:41.526Z,3.29
2024-01-15T20:51:41.554Z,3.14
2024-01-15T20:53:41.636Z,3.18
2024-01-15T20:56:41.628Z,3.15
2024-01-15T20:58:41.617Z,3.00
2024-01-15T21:00:41.551Z,3.02
2024-01-15T21:02:41.645Z,3.07
2024-01-15T21:04:41.586Z,3.18
2024-01-15T21:06:41.676Z,3.30
2024-01-15T21:08:41.695Z,3.34
2024-01-15T21:10:41.574Z,3.23
2024-01-15T21:13:41.588Z,3.23
2024-01-15T21:15:41.603Z,3.32
2024-01-15T21:17:41.804Z,3.41
2024-01-15T21:19:41.637Z,3.48
2024-01-15T21:21:41.605Z,3.56
2024-01-15T21:23:41.799Z,3.64
2024-01-15T21:26:41.722Z,3.68
2024-01-15T21:28:41.714Z,3.69
2024-01-15T21:30:41.682Z,3.78
2024-01-15T21:32:41.738Z,3.83
2024-01-15T21:34:41.642Z,3.90
2024-01-15T21:36:41.635Z,3.93
2024-01-15T21:38:41.774Z,3.91
2024-01-15T21:42:41.722Z,3.91
2024-01-15T21:45:41.727Z,3.91
2024-01-15T21:47:41.790Z,3.92
2024-01-15T21:49:41.669Z,3.93
2024-01-15T21:52:41.686Z,3.92
2024-01-15T21:54:41.681Z,3.83
2024-01-15T21:56:41.740Z,3.74
2024-01-15T21:58:41.730Z,3.73
2024-01-15T22:00:41.722Z,3.68
2024-01-15T22:02:42.165Z,3.67
2024-01-15T22:04:41.727Z,3.73
2024-01-15T22:07:41.771Z,3.70
2024-01-15T22:09:41.751Z,3.75
2024-01-15T22:11:44.683Z,3.75
2024-01-15T22:13:41.725Z,3.69
2024-01-15T22:15:41.732Z,3.71
2024-01-15T22:17:41.812Z,3.71
2024-01-15T22:19:41.843Z,3.74
2024-01-15T22:22:41.824Z,3.72
2024-01-15T22:24:41.787Z,3.62
2024-01-15T22:26:41.840Z,3.61
2024-01-15T22:28:41.803Z,3.59
2024-01-15T22:30:41.774Z,3.55
2024-01-15T22:32:41.924Z,3.57
2024-01-15T22:34:41.839Z,3.60
2024-01-15T22:36:41.787Z,3.60
2024-01-15T22:38:41.898Z,3.59
2024-01-15T22:41:41.824Z,3.55
2024-01-15T22:43:41.803Z,3.58
2024-01-15T22:46:41.805Z,3.58
2024-01-15T22:48:41.948Z,3.49
2024-01-15T22:50:41.918Z,3.37
2024-01-15T22:52:41.869Z,3.28
2024-01-15T22:54:41.824Z,3.31
2024-01-15T22:56:41.980Z,3.36
2024-01-15T22:58:41.866Z,3.34
2024-01-15T23:00:41.929Z,3.39
2024-01-15T23:03:41.924Z,3.44
2024-01-15T23:05:41.937Z,3.47
2024-01-15T23:07:41.922Z,3.49
2024-01-15T23:09:41.870Z,3.53
2024-01-15T23:11:41.956Z,3.54
2024-01-15T23:14:41.982Z,3.52
2024-01-15T23:16:43.650Z,3.46
2024-01-15T23:18:42.006Z,3.44
2024-01-15T23:20:41.926Z,3.45
2024-01-15T23:22:41.964Z,3.31
2024-01-15T23:24:41.941Z,3.26
2024-01-15T23:26:41.950Z,3.25
2024-01-15T23:28:41.922Z,3.10
2024-01-15T23:30:41.911Z,3.13
2024-01-15T23:32:42.152Z,3.15
2024-01-15T23:34:41.965Z,3.22
2024-01-15T23:36:41.929Z,3.17
2024-01-15T23:38:42.005Z,3.20
2024-01-15T23:40:41.963Z,3.19
2024-01-15T23:42:41.979Z,3.21
2024-01-15T23:44:42.064Z,3.24
2024-01-15T23:46:41.978Z,3.26
2024-01-15T23:48:42.178Z,3.28
2024-01-15T23:51:42.005Z,3.28
2024-01-15T23:53:42.079Z,3.27
2024-01-15T23:57:42.027Z,3.29
2024-01-15T23:59:42.127Z,3.24
